sensor_id;sensor_type;location;lat;lon;timestamp;pressure;altitude;pressure_sealevel;temperature
75811;BMP280;64449;50.016;19.954;2023-12-14T00:01:14;97295.20;;;6.16
75811;BMP280;64449;50.016;19.954;2023-12-14T00:03:40;97297.83;;;6.15
75811;BMP280;64449;50.016;19.954;2023-12-14T00:06:13;97299.48;;;6.15
75811;BMP280;64449;50.016;19.954;2023-12-14T00:08:39;97298.51;;;6.13
75811;BMP280;64449;50.016;19.954;2023-12-14T00:11:08;97297.18;;;6.11
75811;BMP280;64449;50.016;19.954;2023-12-14T00:13:34;97299.58;;;6.11
75811;BMP280;64449;50.016;19.954;2023-12-14T00:16:00;97304.05;;;6.12
75811;BMP280;64449;50.016;19.954;2023-12-14T00:18:26;97307.13;;;6.13
75811;BMP280;64449;50.016;19.954;2023-12-14T00:20:52;97310.33;;;6.13
75811;BMP280;64449;50.016;19.954;2023-12-14T00:23:19;97310.63;;;6.12
75811;BMP280;64449;50.016;19.954;2023-12-14T00:25:45;97313.56;;;6.12
75811;BMP280;64449;50.016;19.954;2023-12-14T00:28:10;97314.73;;;6.13
75811;BMP280;64449;50.016;19.954;2023-12-14T00:30:36;97314.77;;;6.13
75811;BMP280;64449;50.016;19.954;2023-12-14T00:33:01;97315.77;;;6.13
75811;BMP280;64449;50.016;19.954;2023-12-14T00:35:26;97320.55;;;6.13
75811;BMP280;64449;50.016;19.954;2023-12-14T00:37:52;97319.67;;;6.11
75811;BMP280;64449;50.016;19.954;2023-12-14T00:40:17;97324.28;;;6.10
75811;BMP280;64449;50.016;19.954;2023-12-14T00:42:42;97327.27;;;6.09
75811;BMP280;64449;50.016;19.954;2023-12-14T00:45:08;97323.20;;;6.08
75811;BMP280;64449;50.016;19.954;2023-12-14T00:47:33;97324.84;;;6.07
75811;BMP280;64449;50.016;19.954;2023-12-14T00:49:59;97328.52;;;6.06
75811;BMP280;64449;50.016;19.954;2023-12-14T00:52:24;97333.59;;;6.06
75811;BMP280;64449;50.016;19.954;2023-12-14T00:54:50;97334.98;;;6.07
75811;BMP280;64449;50.016;19.954;2023-12-14T00:57:15;97336.72;;;6.07
75811;BMP280;64449;50.016;19.954;2023-12-14T00:59:41;97340.47;;;6.08
75811;BMP280;64449;50.016;19.954;2023-12-14T01:02:06;97342.73;;;6.09
75811;BMP280;64449;50.016;19.954;2023-12-14T01:04:32;97343.40;;;6.09
75811;BMP280;64449;50.016;19.954;2023-12-14T01:06:57;97342.87;;;6.10
75811;BMP280;64449;50.016;19.954;2023-12-14T01:09:23;97344.42;;;6.11
75811;BMP280;64449;50.016;19.954;2023-12-14T01:11:48;97345.17;;;6.11
75811;BMP280;64449;50.016;19.954;2023-12-14T01:14:13;97348.38;;;6.11
75811;BMP280;64449;50.016;19.954;2023-12-14T01:16:39;97350.73;;;6.11
75811;BMP280;64449;50.016;19.954;2023-12-14T01:19:04;97353.47;;;6.12
75811;BMP280;64449;50.016;19.954;2023-12-14T01:21:32;97352.92;;;6.11
75811;BMP280;64449;50.016;19.954;2023-12-14T01:23:57;97356.14;;;6.12
75811;BMP280;64449;50.016;19.954;2023-12-14T01:26:22;97353.02;;;6.11
75811;BMP280;64449;50.016;19.954;2023-12-14T01:28:48;97352.96;;;6.11
75811;BMP280;64449;50.016;19.954;2023-12-14T01:31:13;97346.44;;;6.11
75811;BMP280;64449;50.016;19.954;2023-12-14T01:33:39;97346.48;;;6.11
75811;BMP280;64449;50.016;19.954;2023-12-14T01:36:04;97346.09;;;6.12
75811;BMP280;64449;50.016;19.954;2023-12-14T01:38:30;97345.84;;;6.12
75811;BMP280;64449;50.016;19.954;2023-12-14T01:40:55;97344.41;;;6.12
75811;BMP280;64449;50.016;19.954;2023-12-14T01:43:21;97345.61;;;6.12
75811;BMP280;64449;50.016;19.954;2023-12-14T01:45:47;97344.77;;;6.11
75811;BMP280;64449;50.016;19.954;2023-12-14T01:48:12;97343.65;;;6.12
75811;BMP280;64449;50.016;19.954;2023-12-14T01:50:38;97344.91;;;6.11
75811;BMP280;64449;50.016;19.954;2023-12-14T01:53:03;97343.17;;;6.11
75811;BMP280;64449;50.016;19.954;2023-12-14T01:55:29;97346.13;;;6.11
75811;BMP280;64449;50.016;19.954;2023-12-14T01:57:54;97345.54;;;6.11
75811;BMP280;64449;50.016;19.954;2023-12-14T02:00:42;97348.95;;;6.12
75811;BMP280;64449;50.016;19.954;2023-12-14T02:03:05;97350.16;;;6.12
75811;BMP280;64449;50.016;19.954;2023-12-14T02:05:31;97347.95;;;6.13
75811;BMP280;64449;50.016;19.954;2023-12-14T02:07:56;97345.61;;;6.12
75811;BMP280;64449;50.016;19.954;2023-12-14T02:10:23;97345.96;;;6.11
75811;BMP280;64449;50.016;19.954;2023-12-14T02:12:48;97343.84;;;6.09
75811;BMP280;64449;50.016;19.954;2023-12-14T02:15:13;97345.25;;;6.08
75811;BMP280;64449;50.016;19.954;2023-12-14T02:17:39;97349.60;;;6.07
75811;BMP280;64449;50.016;19.954;2023-12-14T02:20:05;97347.71;;;6.05
75811;BMP280;64449;50.016;19.954;2023-12-14T02:22:54;97345.40;;;6.03
75811;BMP280;64449;50.016;19.954;2023-12-14T02:25:21;97354.59;;;6.02
75811;BMP280;64449;50.016;19.954;2023-12-14T02:27:47;97358.58;;;6.01
75811;BMP280;64449;50.016;19.954;2023-12-14T02:30:13;97360.10;;;6.00
75811;BMP280;64449;50.016;19.954;2023-12-14T02:32:39;97364.96;;;6.00
75811;BMP280;64449;50.016;19.954;2023-12-14T02:35:05;97372.89;;;6.02
75811;BMP280;64449;50.016;19.954;2023-12-14T02:37:32;97370.29;;;6.03
75811;BMP280;64449;50.016;19.954;2023-12-14T02:39:58;97376.35;;;6.06
75811;BMP280;64449;50.016;19.954;2023-12-14T02:42:24;97380.73;;;6.07
75811;BMP280;64449;50.016;19.954;2023-12-14T02:44:49;97378.96;;;6.08
75811;BMP280;64449;50.016;19.954;2023-12-14T02:47:15;97380.17;;;6.09
75811;BMP280;64449;50.016;19.954;2023-12-14T02:49:42;97384.30;;;6.09
75811;BMP280;64449;50.016;19.954;2023-12-14T02:52:07;97389.33;;;6.09
75811;BMP280;64449;50.016;19.954;2023-12-14T02:54:33;97391.49;;;6.09
75811;BMP280;64449;50.016;19.954;2023-12-14T02:56:58;97392.50;;;6.10
75811;BMP280;64449;50.016;19.954;2023-12-14T02:59:23;97399.97;;;6.10
75811;BMP280;64449;50.016;19.954;2023-12-14T03:01:49;97407.20;;;6.11
75811;BMP280;64449;50.016;19.954;2023-12-14T03:04:14;97404.42;;;6.11
75811;BMP280;64449;50.016;19.954;2023-12-14T03:06:39;97408.08;;;6.11
75811;BMP280;64449;50.016;19.954;2023-12-14T03:09:05;97410.43;;;6.11
75811;BMP280;64449;50.016;19.954;2023-12-14T03:11:30;97412.39;;;6.09
75811;BMP280;64449;50.016;19.954;2023-12-14T03:13:55;97415.75;;;6.09
75811;BMP280;64449;50.016;19.954;2023-12-14T03:16:21;97419.42;;;6.08
75811;BMP280;64449;50.016;19.954;2023-12-14T03:18:46;97423.63;;;6.08
75811;BMP280;64449;50.016;19.954;2023-12-14T03:21:17;97424.55;;;6.07
75811;BMP280;64449;50.016;19.954;2023-12-14T03:23:43;97427.20;;;6.07
75811;BMP280;64449;50.016;19.954;2023-12-14T03:26:09;97422.96;;;6.08
75811;BMP280;64449;50.016;19.954;2023-12-14T03:28:34;97421.09;;;6.08
75811;BMP280;64449;50.016;19.954;2023-12-14T03:31:00;97418.48;;;6.08
75811;BMP280;64449;50.016;19.954;2023-12-14T03:33:25;97421.04;;;6.09
75811;BMP280;64449;50.016;19.954;2023-12-14T03:35:51;97423.56;;;6.10
75811;BMP280;64449;50.016;19.954;2023-12-14T03:38:16;97427.84;;;6.10
75811;BMP280;64449;50.016;19.954;2023-12-14T03:40:41;97428.42;;;6.10
75811;BMP280;64449;50.016;19.954;2023-12-14T03:43:07;97434.92;;;6.10
75811;BMP280;64449;50.016;19.954;2023-12-14T03:45:32;97435.76;;;6.10
75811;BMP280;64449;50.016;19.954;2023-12-14T03:47:58;97438.45;;;6.10
75811;BMP280;64449;50.016;19.954;2023-12-14T03:50:23;97446.49;;;6.10
75811;BMP280;64449;50.016;19.954;2023-12-14T03:52:49;97449.52;;;6.10
75811;BMP280;64449;50.016;19.954;2023-12-14T03:55:14;97453.55;;;6.10
75811;BMP280;64449;50.016;19.954;2023-12-14T03:57:42;97456.63;;;6.08
75811;BMP280;64449;50.016;19.954;2023-12-14T04:00:12;97463.98;;;6.06
75811;BMP280;64449;50.016;19.954;2023-12-14T04:02:39;97466.45;;;6.05
75811;BMP280;64449;50.016;19.954;2023-12-14T04:05:06;97474.09;;;6.04
75811;BMP280;64449;50.016;19.954;2023-12-14T04:07:31;97480.53;;;6.03
75811;BMP280;64449;50.016;19.954;2023-12-14T04:09:56;97489.60;;;6.02
75811;BMP280;64449;50.016;19.954;2023-12-14T04:12:22;97492.09;;;6.00
75811;BMP280;64449;50.016;19.954;2023-12-14T04:14:47;97494.44;;;5.98
75811;BMP280;64449;50.016;19.954;2023-12-14T04:17:13;97499.45;;;5.97
75811;BMP280;64449;50.016;19.954;2023-12-14T04:19:39;97500.73;;;5.96
75811;BMP280;64449;50.016;19.954;2023-12-14T04:22:05;97508.30;;;5.95
75811;BMP280;64449;50.016;19.954;2023-12-14T04:24:31;97508.98;;;5.95
75811;BMP280;64449;50.016;19.954;2023-12-14T04:26:56;97511.13;;;5.94
75811;BMP280;64449;50.016;19.954;2023-12-14T04:29:22;97515.48;;;5.93
75811;BMP280;64449;50.016;19.954;2023-12-14T04:31:47;97519.62;;;5.92
75811;BMP280;64449;50.016;19.954;2023-12-14T04:34:13;97524.23;;;5.92
75811;BMP280;64449;50.016;19.954;2023-12-14T04:36:45;97529.69;;;5.92
75811;BMP280;64449;50.016;19.954;2023-12-14T04:39:10;97533.34;;;5.93
75811;BMP280;64449;50.016;19.954;2023-12-14T04:41:36;97535.02;;;5.95
75811;BMP280;64449;50.016;19.954;2023-12-14T04:44:01;97537.20;;;5.96
75811;BMP280;64449;50.016;19.954;2023-12-14T04:46:26;97536.29;;;5.97
75811;BMP280;64449;50.016;19.954;2023-12-14T04:48:52;97537.67;;;5.98
75811;BMP280;64449;50.016;19.954;2023-12-14T04:51:17;97539.59;;;5.99
75811;BMP280;64449;50.016;19.954;2023-12-14T04:53:42;97540.42;;;5.99
75811;BMP280;64449;50.016;19.954;2023-12-14T04:56:11;97541.98;;;5.99
75811;BMP280;64449;50.016;19.954;2023-12-14T04:58:38;97547.46;;;5.99
75811;BMP280;64449;50.016;19.954;2023-12-14T05:01:04;97554.84;;;6.00
75811;BMP280;64449;50.016;19.954;2023-12-14T05:03:29;97556.54;;;6.00
75811;BMP280;64449;50.016;19.954;2023-12-14T05:05:55;97560.20;;;6.00
75811;BMP280;64449;50.016;19.954;2023-12-14T05:08:20;97564.69;;;6.01
75811;BMP280;64449;50.016;19.954;2023-12-14T05:10:45;97566.64;;;6.02
75811;BMP280;64449;50.016;19.954;2023-12-14T05:13:10;97568.45;;;6.02
75811;BMP280;64449;50.016;19.954;2023-12-14T05:15:36;97568.97;;;6.02
75811;BMP280;64449;50.016;19.954;2023-12-14T05:18:01;97570.59;;;6.03
75811;BMP280;64449;50.016;19.954;2023-12-14T05:20:26;97570.36;;;6.04
75811;BMP280;64449;50.016;19.954;2023-12-14T05:22:52;97572.85;;;6.04
75811;BMP280;64449;50.016;19.954;2023-12-14T05:25:17;97573.20;;;6.04
75811;BMP280;64449;50.016;19.954;2023-12-14T05:27:42;97577.42;;;6.05
75811;BMP280;64449;50.016;19.954;2023-12-14T05:30:08;97579.31;;;6.05
75811;BMP280;64449;50.016;19.954;2023-12-14T05:32:34;97577.90;;;6.05
75811;BMP280;64449;50.016;19.954;2023-12-14T05:34:59;97579.64;;;6.05
75811;BMP280;64449;50.016;19.954;2023-12-14T05:37:25;97585.44;;;6.04
75811;BMP280;64449;50.016;19.954;2023-12-14T05:39:50;97590.20;;;6.05
75811;BMP280;64449;50.016;19.954;2023-12-14T05:42:16;97592.78;;;6.05
75811;BMP280;64449;50.016;19.954;2023-12-14T05:44:43;97596.39;;;6.05
75811;BMP280;64449;50.016;19.954;2023-12-14T05:47:10;97604.33;;;6.05
75811;BMP280;64449;50.016;19.954;2023-12-14T05:49:36;97611.33;;;6.05
75811;BMP280;64449;50.016;19.954;2023-12-14T05:52:02;97612.98;;;6.06
75811;BMP280;64449;50.016;19.954;2023-12-14T05:54:28;97617.16;;;6.05
75811;BMP280;64449;50.016;19.954;2023-12-14T05:56:54;97622.21;;;6.04
75811;BMP280;64449;50.016;19.954;2023-12-14T05:59:19;97629.50;;;6.04
75811;BMP280;64449;50.016;19.954;2023-12-14T06:01:45;97633.34;;;6.04
75811;BMP280;64449;50.016;19.954;2023-12-14T06:04:10;97638.14;;;6.05
75811;BMP280;64449;50.016;19.954;2023-12-14T06:06:38;97642.16;;;6.06
75811;BMP280;64449;50.016;19.954;2023-12-14T06:09:04;97645.35;;;6.06
75811;BMP280;64449;50.016;19.954;2023-12-14T06:11:32;97645.41;;;6.07
75811;BMP280;64449;50.016;19.954;2023-12-14T06:13:58;97647.52;;;6.07
75811;BMP280;64449;50.016;19.954;2023-12-14T06:16:25;97651.83;;;6.08
75811;BMP280;64449;50.016;19.954;2023-12-14T06:18:50;97654.87;;;6.09
75811;BMP280;64449;50.016;19.954;2023-12-14T06:21:15;97657.98;;;6.09
75811;BMP280;64449;50.016;19.954;2023-12-14T06:23:41;97655.72;;;6.10
75811;BMP280;64449;50.016;19.954;2023-12-14T06:26:07;97658.70;;;6.09
75811;BMP280;64449;50.016;19.954;2023-12-14T06:28:32;97661.06;;;6.08
75811;BMP280;64449;50.016;19.954;2023-12-14T06:30:58;97666.64;;;6.07
75811;BMP280;64449;50.016;19.954;2023-12-14T06:33:23;97668.59;;;6.05
75811;BMP280;64449;50.016;19.954;2023-12-14T06:35:48;97675.25;;;6.05
75811;BMP280;64449;50.016;19.954;2023-12-14T06:38:14;97675.55;;;6.06
75811;BMP280;64449;50.016;19.954;2023-12-14T06:40:39;97679.63;;;6.06
75811;BMP280;64449;50.016;19.954;2023-12-14T06:43:04;97686.39;;;6.06
75811;BMP280;64449;50.016;19.954;2023-12-14T06:45:30;97687.60;;;6.05
75811;BMP280;64449;50.016;19.954;2023-12-14T06:47:56;97688.27;;;6.06
75811;BMP280;64449;50.016;19.954;2023-12-14T06:50:21;97694.61;;;6.07
75811;BMP280;64449;50.016;19.954;2023-12-14T06:52:46;97697.89;;;6.07
75811;BMP280;64449;50.016;19.954;2023-12-14T06:55:12;97699.40;;;6.07
75811;BMP280;64449;50.016;19.954;2023-12-14T06:57:40;97705.95;;;6.08
75811;BMP280;64449;50.016;19.954;2023-12-14T07:00:06;97713.89;;;6.08
75811;BMP280;64449;50.016;19.954;2023-12-14T07:02:31;97716.05;;;6.09
75811;BMP280;64449;50.016;19.954;2023-12-14T07:04:57;97719.08;;;6.10
75811;BMP280;64449;50.016;19.954;2023-12-14T07:07:23;97721.83;;;6.10
75811;BMP280;64449;50.016;19.954;2023-12-14T07:09:48;97720.56;;;6.10
75811;BMP280;64449;50.016;19.954;2023-12-14T07:12:13;97723.90;;;6.11
75811;BMP280;64449;50.016;19.954;2023-12-14T07:14:39;97725.93;;;6.11
75811;BMP280;64449;50.016;19.954;2023-12-14T07:17:05;97727.90;;;6.10
75811;BMP280;64449;50.016;19.954;2023-12-14T07:19:30;97736.30;;;6.11
75811;BMP280;64449;50.016;19.954;2023-12-14T07:21:57;97740.02;;;6.11
75811;BMP280;64449;50.016;19.954;2023-12-14T07:24:22;97745.32;;;6.10
75811;BMP280;64449;50.016;19.954;2023-12-14T07:26:48;97753.22;;;6.11
75811;BMP280;64449;50.016;19.954;2023-12-14T07:29:13;97758.19;;;6.11
75811;BMP280;64449;50.016;19.954;2023-12-14T07:31:38;97766.11;;;6.11
75811;BMP280;64449;50.016;19.954;2023-12-14T07:34:04;97766.70;;;6.12
75811;BMP280;64449;50.016;19.954;2023-12-14T07:36:29;97767.16;;;6.13
75811;BMP280;64449;50.016;19.954;2023-12-14T07:38:55;97769.98;;;6.13
75811;BMP280;64449;50.016;19.954;2023-12-14T07:41:20;97769.17;;;6.14
75811;BMP280;64449;50.016;19.954;2023-12-14T07:43:51;97773.44;;;6.14
75811;BMP280;64449;50.016;19.954;2023-12-14T07:46:16;97776.61;;;6.15
75811;BMP280;64449;50.016;19.954;2023-12-14T07:48:42;97781.21;;;6.16
75811;BMP280;64449;50.016;19.954;2023-12-14T07:51:07;97784.25;;;6.17
75811;BMP280;64449;50.016;19.954;2023-12-14T07:53:32;97785.63;;;6.19
75811;BMP280;64449;50.016;19.954;2023-12-14T07:55:58;97787.92;;;6.18
75811;BMP280;64449;50.016;19.954;2023-12-14T07:58:23;97789.70;;;6.19
75811;BMP280;64449;50.016;19.954;2023-12-14T08:00:51;97793.93;;;6.20
75811;BMP280;64449;50.016;19.954;2023-12-14T08:03:16;97797.58;;;6.20
75811;BMP280;64449;50.016;19.954;2023-12-14T08:05:41;97800.66;;;6.21
75811;BMP280;64449;50.016;19.954;2023-12-14T08:08:07;97801.73;;;6.22
75811;BMP280;64449;50.016;19.954;2023-12-14T08:10:32;97807.36;;;6.22
75811;BMP280;64449;50.016;19.954;2023-12-14T08:12:58;97809.38;;;6.22
75811;BMP280;64449;50.016;19.954;2023-12-14T08:15:23;97808.75;;;6.23
75811;BMP280;64449;50.016;19.954;2023-12-14T08:17:49;97814.48;;;6.25
75811;BMP280;64449;50.016;19.954;2023-12-14T08:20:15;97818.55;;;6.27
75811;BMP280;64449;50.016;19.954;2023-12-14T08:22:40;97826.09;;;6.30
75811;BMP280;64449;50.016;19.954;2023-12-14T08:25:13;97829.47;;;6.32
75811;BMP280;64449;50.016;19.954;2023-12-14T08:27:43;97832.85;;;6.34
75811;BMP280;64449;50.016;19.954;2023-12-14T08:30:11;97837.64;;;6.35
75811;BMP280;64449;50.016;19.954;2023-12-14T08:32:37;97838.69;;;6.37
75811;BMP280;64449;50.016;19.954;2023-12-14T08:35:03;97841.59;;;6.39
75811;BMP280;64449;50.016;19.954;2023-12-14T08:37:28;97845.54;;;6.40
75811;BMP280;64449;50.016;19.954;2023-12-14T08:39:53;97847.89;;;6.40
75811;BMP280;64449;50.016;19.954;2023-12-14T08:42:19;97851.58;;;6.39
75811;BMP280;64449;50.016;19.954;2023-12-14T08:44:44;97860.52;;;6.39
75811;BMP280;64449;50.016;19.954;2023-12-14T08:47:09;97863.11;;;6.40
75811;BMP280;64449;50.016;19.954;2023-12-14T08:49:35;97868.31;;;6.40
75811;BMP280;64449;50.016;19.954;2023-12-14T08:52:01;97875.51;;;6.41
75811;BMP280;64449;50.016;19.954;2023-12-14T08:54:27;97879.19;;;6.43
75811;BMP280;64449;50.016;19.954;2023-12-14T08:56:52;97882.59;;;6.44
75811;BMP280;64449;50.016;19.954;2023-12-14T08:59:17;97889.77;;;6.44
75811;BMP280;64449;50.016;19.954;2023-12-14T09:01:45;97895.75;;;6.44
75811;BMP280;64449;50.016;19.954;2023-12-14T09:04:10;97897.46;;;6.44
75811;BMP280;64449;50.016;19.954;2023-12-14T09:06:36;97900.45;;;6.45
75811;BMP280;64449;50.016;19.954;2023-12-14T09:09:01;97902.77;;;6.46
75811;BMP280;64449;50.016;19.954;2023-12-14T09:11:28;97907.27;;;6.47
75811;BMP280;64449;50.016;19.954;2023-12-14T09:13:53;97909.97;;;6.48
75811;BMP280;64449;50.016;19.954;2023-12-14T09:16:19;97913.75;;;6.48
75811;BMP280;64449;50.016;19.954;2023-12-14T09:18:44;97918.16;;;6.48
75811;BMP280;64449;50.016;19.954;2023-12-14T09:21:09;97915.14;;;6.48
75811;BMP280;64449;50.016;19.954;2023-12-14T09:23:35;97914.77;;;6.45
75811;BMP280;64449;50.016;19.954;2023-12-14T09:26:00;97920.52;;;6.45
75811;BMP280;64449;50.016;19.954;2023-12-14T09:28:26;97922.27;;;6.43
75811;BMP280;64449;50.016;19.954;2023-12-14T09:30:52;97922.04;;;6.43
75811;BMP280;64449;50.016;19.954;2023-12-14T09:33:17;97928.05;;;6.43
75811;BMP280;64449;50.016;19.954;2023-12-14T09:35:43;97929.91;;;6.45
75811;BMP280;64449;50.016;19.954;2023-12-14T09:38:09;97931.88;;;6.48
75811;BMP280;64449;50.016;19.954;2023-12-14T09:40:34;97934.46;;;6.50
75811;BMP280;64449;50.016;19.954;2023-12-14T09:43:00;97936.93;;;6.53
75811;BMP280;64449;50.016;19.954;2023-12-14T09:45:29;97938.60;;;6.54
75811;BMP280;64449;50.016;19.954;2023-12-14T09:47:59;97936.48;;;6.56
75811;BMP280;64449;50.016;19.954;2023-12-14T09:50:25;97935.24;;;6.60
75811;BMP280;64449;50.016;19.954;2023-12-14T09:52:50;97936.21;;;6.63
75811;BMP280;64449;50.016;19.954;2023-12-14T09:55:16;97937.67;;;6.68
75811;BMP280;64449;50.016;19.954;2023-12-14T09:57:42;97937.55;;;6.72
75811;BMP280;64449;50.016;19.954;2023-12-14T10:00:09;97940.63;;;6.76
75811;BMP280;64449;50.016;19.954;2023-12-14T10:02:37;97940.86;;;6.80
75811;BMP280;64449;50.016;19.954;2023-12-14T10:05:03;97941.38;;;6.82
75811;BMP280;64449;50.016;19.954;2023-12-14T10:07:30;97944.27;;;6.84
75811;BMP280;64449;50.016;19.954;2023-12-14T10:10:09;97945.48;;;6.86
75811;BMP280;64449;50.016;19.954;2023-12-14T10:12:50;97948.25;;;6.88
75811;BMP280;64449;50.016;19.954;2023-12-14T10:15:16;97947.29;;;6.91
75811;BMP280;64449;50.016;19.954;2023-12-14T10:17:42;97949.44;;;6.95
75811;BMP280;64449;50.016;19.954;2023-12-14T10:20:07;97953.19;;;6.98
75811;BMP280;64449;50.016;19.954;2023-12-14T10:22:35;97956.80;;;7.00
75811;BMP280;64449;50.016;19.954;2023-12-14T10:25:03;97960.60;;;7.03
75811;BMP280;64449;50.016;19.954;2023-12-14T10:27:31;97964.89;;;7.06
75811;BMP280;64449;50.016;19.954;2023-12-14T10:29:57;97963.62;;;7.07
75811;BMP280;64449;50.016;19.954;2023-12-14T10:32:23;97966.95;;;7.09
75811;BMP280;64449;50.016;19.954;2023-12-14T10:34:49;97965.95;;;7.11
75811;BMP280;64449;50.016;19.954;2023-12-14T10:37:15;97965.75;;;7.13
75811;BMP280;64449;50.016;19.954;2023-12-14T10:39:42;97969.09;;;7.15
75811;BMP280;64449;50.016;19.954;2023-12-14T10:42:10;97971.77;;;7.17
75811;BMP280;64449;50.016;19.954;2023-12-14T10:44:36;97974.70;;;7.18
75811;BMP280;64449;50.016;19.954;2023-12-14T10:47:02;97979.96;;;7.18
75811;BMP280;64449;50.016;19.954;2023-12-14T10:49:31;97984.73;;;7.19
75811;BMP280;64449;50.016;19.954;2023-12-14T10:51:58;97986.59;;;7.19
75811;BMP280;64449;50.016;19.954;2023-12-14T10:54:25;97985.62;;;7.21
75811;BMP280;64449;50.016;19.954;2023-12-14T10:56:55;97989.33;;;7.22
75811;BMP280;64449;50.016;19.954;2023-12-14T10:59:21;97992.00;;;7.23
75811;BMP280;64449;50.016;19.954;2023-12-14T11:01:54;97995.56;;;7.24
75811;BMP280;64449;50.016;19.954;2023-12-14T11:04:24;97996.27;;;7.25
75811;BMP280;64449;50.016;19.954;2023-12-14T11:06:53;97996.75;;;7.25
75811;BMP280;64449;50.016;19.954;2023-12-14T11:09:22;98000.00;;;7.26
75811;BMP280;64449;50.016;19.954;2023-12-14T11:11:55;98002.79;;;7.28
75811;BMP280;64449;50.016;19.954;2023-12-14T11:14:26;98005.27;;;7.29
75811;BMP280;64449;50.016;19.954;2023-12-14T11:16:56;98006.32;;;7.29
75811;BMP280;64449;50.016;19.954;2023-12-14T11:24:21;98013.38;;;7.28
75811;BMP280;64449;50.016;19.954;2023-12-14T11:26:49;98013.53;;;7.27
75811;BMP280;64449;50.016;19.954;2023-12-14T11:29:15;98018.27;;;7.28
75811;BMP280;64449;50.016;19.954;2023-12-14T11:31:41;98019.71;;;7.31
75811;BMP280;64449;50.016;19.954;2023-12-14T11:34:06;98021.42;;;7.33
75811;BMP280;64449;50.016;19.954;2023-12-14T11:36:32;98016.11;;;7.34
75811;BMP280;64449;50.016;19.954;2023-12-14T11:38:58;98019.14;;;7.34
75811;BMP280;64449;50.016;19.954;2023-12-14T11:41:23;98020.48;;;7.35
75811;BMP280;64449;50.016;19.954;2023-12-14T11:43:51;98021.23;;;7.35
75811;BMP280;64449;50.016;19.954;2023-12-14T11:46:17;98019.85;;;7.35
75811;BMP280;64449;50.016;19.954;2023-12-14T11:48:46;98021.71;;;7.36
75811;BMP280;64449;50.016;19.954;2023-12-14T11:51:13;98027.27;;;7.36
75811;BMP280;64449;50.016;19.954;2023-12-14T11:53:40;98025.41;;;7.36
75811;BMP280;64449;50.016;19.954;2023-12-14T11:56:06;98022.76;;;7.38
75811;BMP280;64449;50.016;19.954;2023-12-14T11:58:32;98026.19;;;7.39
75811;BMP280;64449;50.016;19.954;2023-12-14T12:01:17;98024.70;;;7.40
75811;BMP280;64449;50.016;19.954;2023-12-14T12:03:45;98029.64;;;7.41
75811;BMP280;64449;50.016;19.954;2023-12-14T12:06:29;98032.41;;;7.41
75811;BMP280;64449;50.016;19.954;2023-12-14T12:08:54;98041.39;;;7.40
75811;BMP280;64449;50.016;19.954;2023-12-14T12:11:22;98043.05;;;7.39
75811;BMP280;64449;50.016;19.954;2023-12-14T12:13:51;98046.85;;;7.36
75811;BMP280;64449;50.016;19.954;2023-12-14T12:16:17;98048.64;;;7.35
75811;BMP280;64449;50.016;19.954;2023-12-14T12:18:42;98053.36;;;7.33
75811;BMP280;64449;50.016;19.954;2023-12-14T12:21:07;98061.79;;;7.32
75811;BMP280;64449;50.016;19.954;2023-12-14T12:23:34;98063.45;;;7.30
75811;BMP280;64449;50.016;19.954;2023-12-14T12:26:00;98066.88;;;7.27
75811;BMP280;64449;50.016;19.954;2023-12-14T12:28:25;98069.45;;;7.24
75811;BMP280;64449;50.016;19.954;2023-12-14T12:30:51;98073.61;;;7.20
75811;BMP280;64449;50.016;19.954;2023-12-14T12:33:16;98075.34;;;7.17
75811;BMP280;64449;50.016;19.954;2023-12-14T12:35:41;98072.44;;;7.15
75811;BMP280;64449;50.016;19.954;2023-12-14T12:38:07;98073.62;;;7.14
75811;BMP280;64449;50.016;19.954;2023-12-14T12:40:32;98074.24;;;7.14
75811;BMP280;64449;50.016;19.954;2023-12-14T12:42:58;98071.90;;;7.12
75811;BMP280;64449;50.016;19.954;2023-12-14T12:45:24;98073.16;;;7.09
75811;BMP280;64449;50.016;19.954;2023-12-14T12:47:53;98079.67;;;7.05
75811;BMP280;64449;50.016;19.954;2023-12-14T12:50:19;98083.13;;;6.99
75811;BMP280;64449;50.016;19.954;2023-12-14T12:52:44;98086.18;;;6.97
75811;BMP280;64449;50.016;19.954;2023-12-14T12:55:14;98085.25;;;6.90
75811;BMP280;64449;50.016;19.954;2023-12-14T12:57:40;98086.29;;;6.86
75811;BMP280;64449;50.016;19.954;2023-12-14T13:00:07;98090.58;;;6.84
75811;BMP280;64449;50.016;19.954;2023-12-14T13:02:37;98094.06;;;6.78
75811;BMP280;64449;50.016;19.954;2023-12-14T13:05:05;98100.58;;;6.70
75811;BMP280;64449;50.016;19.954;2023-12-14T13:07:31;98105.61;;;6.62
75811;BMP280;64449;50.016;19.954;2023-12-14T13:09:56;98107.55;;;6.57
75811;BMP280;64449;50.016;19.954;2023-12-14T13:12:21;98114.38;;;6.56
75811;BMP280;64449;50.016;19.954;2023-12-14T13:14:47;98119.45;;;6.54
75811;BMP280;64449;50.016;19.954;2023-12-14T13:17:12;98124.02;;;6.54
75811;BMP280;64449;50.016;19.954;2023-12-14T13:19:38;98126.30;;;6.55
75811;BMP280;64449;50.016;19.954;2023-12-14T13:22:03;98126.66;;;6.56
75811;BMP280;64449;50.016;19.954;2023-12-14T13:24:30;98132.43;;;6.58
75811;BMP280;64449;50.016;19.954;2023-12-14T13:26:55;98133.91;;;6.56
75811;BMP280;64449;50.016;19.954;2023-12-14T13:29:20;98134.44;;;6.56
75811;BMP280;64449;50.016;19.954;2023-12-14T13:31:47;98137.69;;;6.57
75811;BMP280;64449;50.016;19.954;2023-12-14T13:34:12;98140.80;;;6.57
75811;BMP280;64449;50.016;19.954;2023-12-14T13:36:38;98140.68;;;6.54
75811;BMP280;64449;50.016;19.954;2023-12-14T13:39:03;98146.20;;;6.52
75811;BMP280;64449;50.016;19.954;2023-12-14T13:41:28;98150.52;;;6.51
75811;BMP280;64449;50.016;19.954;2023-12-14T13:43:59;98157.14;;;6.50
75811;BMP280;64449;50.016;19.954;2023-12-14T13:46:24;98161.00;;;6.50
75811;BMP280;64449;50.016;19.954;2023-12-14T13:48:49;98164.52;;;6.50
75811;BMP280;64449;50.016;19.954;2023-12-14T13:51:15;98169.21;;;6.49
75811;BMP280;64449;50.016;19.954;2023-12-14T13:53:40;98174.43;;;6.47
75811;BMP280;64449;50.016;19.954;2023-12-14T13:56:06;98181.31;;;6.45
75811;BMP280;64449;50.016;19.954;2023-12-14T13:58:32;98182.50;;;6.45
75811;BMP280;64449;50.016;19.954;2023-12-14T14:00:59;98192.27;;;6.46
75811;BMP280;64449;50.016;19.954;2023-12-14T14:03:25;98199.45;;;6.46
75811;BMP280;64449;50.016;19.954;2023-12-14T14:05:52;98205.65;;;6.45
75811;BMP280;64449;50.016;19.954;2023-12-14T14:08:18;98209.21;;;6.44